Terminal Aerodrome Forecast
Issued by NWS

Home | Current Version | Previous Version | Text Only | Print | Product List | Glossary On
Versions: 1 2 3 4 5 6 7 8 9 10 11 12 13 14
477
FTUS41 KBGM 161737
TAFRME
TAF
KRME 161737Z 1618/1718 VRB03KT P6SM BKN200
     FM170700 VRB03KT P6SM OVC100
     FM171300 10005KT P6SM OVC045
     FM171500 10007KT 4SM -FZRA BR OVC025=

USA.gov is the U.S. government's official web portal to all federal, state and local government web resources and services.